Time,TemperatureF,DewpointF,PressureIn,WindDirection,WindDirectionDegrees,WindSpeedMPH,WindSpeedGustMPH,Humidity,HourlyPrecipIn,Conditions,Clouds,dailyrainin,SoftwareType,DateUTC
2013-07-17 00:01:00,75.2,71.4,30.17,East,96,0.0,2.0,88,0.00,,,0.02,Wunderground v.1.15,2013-07-17 04:01:00,
2013-07-17 00:04:00,75.2,71.4,30.18,East,96,0.0,2.0,88,0.00,,,0.02,Wunderground v.1.15,2013-07-17 04:04:00,
2013-07-17 00:05:00,75.2,72.1,30.18,East,96,0.0,2.0,90,0.00,,,0.02,Wunderground v.1.15,2013-07-17 04:05:00,
2013-07-17 00:09:00,75.3,72.2,30.18,SE,129,0.0,2.0,90,0.00,,,0.02,Wunderground v.1.15,2013-07-17 04:09:00,
2013-07-17 00:14:00,75.2,72.1,30.17,SE,144,1.0,2.0,90,0.00,,,0.02,Wunderground v.1.15,2013-07-17 04:14:00,
2013-07-17 00:20:00,75.1,72.0,30.17,SE,139,1.0,2.0,90,0.00,,,0.02,Wunderground v.1.15,2013-07-17 04:20:00,
2013-07-17 00:26:00,74.9,71.8,30.17,SE,138,1.0,2.0,90,0.00,,,0.02,Wunderground v.1.15,2013-07-17 04:26:00,
2013-07-17 00:31:00,74.8,71.7,30.17,SE,138,1.0,1.0,90,0.00,,,0.02,Wunderground v.1.15,2013-07-17 04:31:00,
2013-07-17 00:36:00,74.8,71.7,30.17,SE,138,0.0,2.0,90,0.00,,,0.02,Wunderground v.1.15,2013-07-17 04:36:00,
2013-07-17 00:41:00,74.8,72.0,30.17,SE,138,0.0,2.0,91,0.00,,,0.02,Wunderground v.1.15,2013-07-17 04:41:00,
2013-07-17 00:46:00,74.8,72.0,30.17,SE,138,0.0,2.0,91,0.00,,,0.02,Wunderground v.1.15,2013-07-17 04:46:00,
2013-07-17 00:52:00,74.7,71.9,30.17,SE,138,0.0,2.0,91,0.00,,,0.02,Wunderground v.1.15,2013-07-17 04:52:00,
2013-07-17 00:57:00,74.6,71.8,30.17,SE,138,0.0,2.0,91,0.00,,,0.00,Wunderground v.1.15,2013-07-17 04:57:00,
2013-07-17 01:00:00,74.6,71.8,30.17,SE,138,0.0,2.0,91,0.00,,,0.00,Wunderground v.1.15,2013-07-17 05:00:00,
2013-07-17 01:01:00,74.6,71.8,30.17,SE,138,0.0,2.0,91,0.00,,,0.00,Wunderground v.1.15,2013-07-17 05:01:00,
2013-07-17 01:06:00,74.6,71.8,30.17,SE,138,0.0,2.0,91,0.00,,,0.00,Wunderground v.1.15,2013-07-17 05:06:00,
2013-07-17 01:11:00,74.6,71.8,30.17,SE,138,0.0,2.0,91,0.00,,,0.00,Wunderground v.1.15,2013-07-17 05:11:00,
2013-07-17 01:16:00,74.6,71.8,30.17,SE,138,0.0,2.0,91,0.00,,,0.00,Wunderground v.1.15,2013-07-17 05:16:00,
2013-07-17 01:21:00,74.4,71.6,30.16,SE,138,0.0,2.0,91,0.00,,,0.00,Wunderground v.1.15,2013-07-17 05:21:00,
2013-07-17 01:26:00,74.3,71.5,30.16,SE,138,0.0,2.0,91,0.00,,,0.00,Wunderground v.1.15,2013-07-17 05:26:00,
2013-07-17 01:31:00,74.3,71.8,30.16,SE,138,0.0,2.0,92,0.00,,,0.00,Wunderground v.1.15,2013-07-17 05:31:00,
2013-07-17 01:37:00,74.4,71.9,30.16,SE,138,0.0,2.0,92,0.00,,,0.00,Wunderground v.1.15,2013-07-17 05:37:00,
2013-07-17 01:43:00,74.3,71.8,30.16,SE,138,0.0,2.0,92,0.00,,,0.00,Wunderground v.1.15,2013-07-17 05:43:00,
2013-07-17 01:48:00,74.3,71.8,30.15,SE,138,0.0,2.0,92,0.00,,,0.00,Wunderground v.1.15,2013-07-17 05:48:00,
2013-07-17 01:53:00,74.2,71.7,30.15,SE,138,0.0,2.0,92,0.00,,,0.00,Wunderground v.1.15,2013-07-17 05:53:00,
2013-07-17 01:58:00,74.2,72.0,30.15,SE,138,0.0,2.0,93,0.00,,,0.00,Wunderground v.1.15,2013-07-17 05:58:00,
2013-07-17 02:04:00,74.2,72.0,30.15,SE,138,0.0,2.0,93,0.00,,,0.00,Wunderground v.1.15,2013-07-17 06:04:00,
2013-07-17 02:10:00,74.1,71.9,30.15,SE,138,0.0,2.0,93,0.00,,,0.00,Wunderground v.1.15,2013-07-17 06:10:00,
2013-07-17 02:16:00,74.1,71.9,30.15,SE,138,0.0,2.0,93,0.00,,,0.00,Wunderground v.1.15,2013-07-17 06:16:00,
2013-07-17 02:22:00,74.0,71.8,30.15,SE,138,0.0,2.0,93,0.00,,,0.00,Wunderground v.1.15,2013-07-17 06:22:00,
2013-07-17 02:28:00,74.0,71.8,30.15,SE,138,0.0,2.0,93,0.00,,,0.00,Wunderground v.1.15,2013-07-17 06:28:00,
2013-07-17 02:34:00,73.9,71.7,30.15,SE,138,0.0,2.0,93,0.00,,,0.00,Wunderground v.1.15,2013-07-17 06:34:00,
2013-07-17 02:40:00,73.8,71.6,30.15,SE,138,0.0,2.0,93,0.00,,,0.00,Wunderground v.1.15,2013-07-17 06:40:00,
2013-07-17 02:46:00,73.7,71.5,30.15,SE,138,0.0,2.0,93,0.00,,,0.00,Wunderground v.1.15,2013-07-17 06:46:00,
2013-07-17 02:52:00,73.5,71.4,30.15,SE,138,0.0,2.0,93,0.00,,,0.00,Wunderground v.1.15,2013-07-17 06:52:00,
2013-07-17 02:57:00,73.5,71.4,30.15,SE,138,0.0,2.0,93,0.00,,,0.00,Wunderground v.1.15,2013-07-17 06:57:00,
2013-07-17 03:02:00,73.4,71.3,30.15,SE,138,0.0,2.0,93,0.00,,,0.00,Wunderground v.1.15,2013-07-17 07:02:00,
2013-07-17 03:07:00,73.3,71.2,30.15,SE,138,0.0,2.0,93,0.00,,,0.00,Wunderground v.1.15,2013-07-17 07:07:00,
2013-07-17 03:13:00,73.3,71.2,30.15,SE,138,0.0,2.0,93,0.00,,,0.00,Wunderground v.1.15,2013-07-17 07:13:00,
2013-07-17 03:18:00,73.1,71.0,30.15,SE,138,0.0,2.0,93,0.00,,,0.00,Wunderground v.1.15,2013-07-17 07:18:00,
2013-07-17 03:24:00,73.1,71.3,30.16,SE,138,0.0,2.0,94,0.00,,,0.00,Wunderground v.1.15,2013-07-17 07:24:00,
2013-07-17 03:30:00,73.1,71.3,30.16,SE,138,0.0,2.0,94,0.00,,,0.00,Wunderground v.1.15,2013-07-17 07:30:00,
2013-07-17 03:36:00,72.9,70.8,30.16,SE,138,0.0,2.0,93,0.00,,,0.00,Wunderground v.1.15,2013-07-17 07:36:00,
2013-07-17 03:42:00,72.8,70.7,30.16,SE,138,0.0,2.0,93,0.00,,,0.00,Wunderground v.1.15,2013-07-17 07:42:00,
2013-07-17 03:48:00,72.9,71.1,30.16,SE,138,0.0,2.0,94,0.00,,,0.00,Wunderground v.1.15,2013-07-17 07:48:00,
2013-07-17 03:54:00,72.8,71.0,30.16,SE,138,0.0,2.0,94,0.00,,,0.00,Wunderground v.1.15,2013-07-17 07:54:00,
2013-07-17 04:00:00,72.7,70.6,30.16,SE,138,0.0,2.0,93,0.00,,,0.00,Wunderground v.1.15,2013-07-17 08:00:00,
2013-07-17 04:06:00,72.6,70.5,30.16,SE,138,0.0,2.0,93,0.00,,,0.00,Wunderground v.1.15,2013-07-17 08:06:00,
2013-07-17 04:11:00,72.5,70.4,30.16,SE,138,0.0,2.0,93,0.00,,,0.00,Wunderground v.1.15,2013-07-17 08:11:00,
2013-07-17 04:17:00,72.4,70.6,30.16,SE,138,0.0,2.0,94,0.00,,,0.00,Wunderground v.1.15,2013-07-17 08:17:00,
2013-07-17 04:22:00,72.3,70.5,30.16,SE,138,0.0,2.0,94,0.00,,,0.00,Wunderground v.1.15,2013-07-17 08:22:00,
2013-07-17 04:28:00,72.2,70.4,30.16,SE,138,0.0,2.0,94,0.00,,,0.00,Wunderground v.1.15,2013-07-17 08:28:00,
2013-07-17 04:34:00,72.1,70.3,30.16,SE,138,0.0,2.0,94,0.00,,,0.00,Wunderground v.1.15,2013-07-17 08:34:00,
2013-07-17 04:40:00,71.9,69.8,30.16,SE,138,0.0,2.0,93,0.00,,,0.00,Wunderground v.1.15,2013-07-17 08:40:00,
2013-07-17 04:46:00,71.8,69.7,30.16,SE,138,0.0,2.0,93,0.00,,,0.00,Wunderground v.1.15,2013-07-17 08:46:00,
2013-07-17 04:51:00,71.7,69.9,30.16,SE,138,0.0,2.0,94,0.00,,,0.00,Wunderground v.1.15,2013-07-17 08:51:00,
2013-07-17 04:57:00,71.7,69.9,30.16,SE,138,0.0,2.0,94,0.00,,,0.00,Wunderground v.1.15,2013-07-17 08:57:00,
2013-07-17 05:02:00,71.6,69.8,30.16,SE,138,0.0,2.0,94,0.00,,,0.00,Wunderground v.1.15,2013-07-17 09:02:00,
2013-07-17 05:08:00,71.5,69.7,30.16,SE,138,0.0,2.0,94,0.00,,,0.00,Wunderground v.1.15,2013-07-17 09:08:00,
2013-07-17 05:13:00,71.5,69.7,30.16,SE,138,0.0,2.0,94,0.00,,,0.01,Wunderground v.1.15,2013-07-17 09:13:00,
2013-07-17 05:19:00,71.6,69.8,30.17,SE,138,0.0,2.0,94,0.00,,,0.01,Wunderground v.1.15,2013-07-17 09:19:00,
2013-07-17 05:25:00,71.5,69.7,30.17,SE,138,0.0,2.0,94,0.00,,,0.01,Wunderground v.1.15,2013-07-17 09:25:00,
2013-07-17 05:31:00,71.5,69.7,30.17,SE,138,0.0,2.0,94,0.00,,,0.01,Wunderground v.1.15,2013-07-17 09:31:00,
2013-07-17 05:37:00,71.5,69.7,30.17,SE,138,0.0,2.0,94,0.00,,,0.01,Wunderground v.1.15,2013-07-17 09:37:00,
2013-07-17 05:43:00,71.6,69.8,30.17,SE,138,0.0,2.0,94,0.00,,,0.01,Wunderground v.1.15,2013-07-17 09:43:00,
2013-07-17 05:48:00,71.5,69.7,30.17,SE,138,0.0,2.0,94,0.00,,,0.01,Wunderground v.1.15,2013-07-17 09:48:00,
2013-07-17 05:53:00,71.5,69.7,30.17,SE,138,0.0,2.0,94,0.00,,,0.01,Wunderground v.1.15,2013-07-17 09:53:00,
2013-07-17 05:58:00,71.5,69.7,30.17,SE,138,0.0,2.0,94,0.00,,,0.01,Wunderground v.1.15,2013-07-17 09:58:00,
2013-07-17 06:04:00,71.5,69.7,30.18,SE,138,0.0,2.0,94,0.00,,,0.01,Wunderground v.1.15,2013-07-17 10:04:00,
2013-07-17 06:09:00,71.4,69.6,30.18,SE,138,0.0,2.0,94,0.00,,,0.01,Wunderground v.1.15,2013-07-17 10:09:00,
2013-07-17 06:14:00,71.3,69.5,30.17,SE,138,0.0,2.0,94,0.00,,,0.01,Wunderground v.1.15,2013-07-17 10:14:00,
2013-07-17 06:20:00,71.2,69.4,30.18,SE,138,0.0,2.0,94,0.00,,,0.01,Wunderground v.1.15,2013-07-17 10:20:00,
2013-07-17 06:25:00,71.2,69.4,30.18,SE,138,0.0,2.0,94,0.00,,,0.01,Wunderground v.1.15,2013-07-17 10:25:00,
2013-07-17 06:30:00,71.2,69.4,30.18,SE,138,0.0,2.0,94,0.00,,,0.01,Wunderground v.1.15,2013-07-17 10:30:00,
2013-07-17 06:36:00,71.2,69.4,30.18,SE,138,0.0,2.0,94,0.00,,,0.01,Wunderground v.1.15,2013-07-17 10:36:00,
2013-07-17 06:41:00,71.2,69.4,30.18,SE,138,0.0,2.0,94,0.00,,,0.01,Wunderground v.1.15,2013-07-17 10:41:00,
2013-07-17 06:47:00,71.2,69.4,30.18,SE,138,0.0,2.0,94,0.00,,,0.01,Wunderground v.1.15,2013-07-17 10:47:00,
2013-07-17 06:52:00,71.3,69.5,30.18,SE,138,0.0,2.0,94,0.00,,,0.01,Wunderground v.1.15,2013-07-17 10:52:00,
2013-07-17 06:58:00,71.4,69.6,30.18,SE,138,0.0,2.0,94,0.00,,,0.01,Wunderground v.1.15,2013-07-17 10:58:00,
2013-07-17 07:03:00,71.5,69.7,30.18,SE,138,0.0,2.0,94,0.00,,,0.01,Wunderground v.1.15,2013-07-17 11:03:00,
2013-07-17 07:09:00,71.6,69.8,30.18,SE,138,0.0,2.0,94,0.00,,,0.01,Wunderground v.1.15,2013-07-17 11:09:00,
2013-07-17 07:14:00,71.7,69.9,30.18,SE,138,0.0,2.0,94,0.00,,,0.01,Wunderground v.1.15,2013-07-17 11:14:00,
2013-07-17 07:19:00,71.8,70.0,30.18,SE,138,0.0,2.0,94,0.00,,,0.01,Wunderground v.1.15,2013-07-17 11:19:00,
2013-07-17 07:25:00,71.9,70.1,30.18,SE,138,0.0,2.0,94,0.00,,,0.01,Wunderground v.1.15,2013-07-17 11:25:00,
2013-07-17 07:30:00,72.0,70.2,30.18,SE,138,0.0,2.0,94,0.00,,,0.01,Wunderground v.1.15,2013-07-17 11:30:00,
2013-07-17 07:36:00,72.2,70.4,30.18,SE,138,0.0,2.0,94,0.00,,,0.01,Wunderground v.1.15,2013-07-17 11:36:00,
2013-07-17 07:42:00,72.4,70.3,30.18,SE,138,0.0,2.0,93,0.00,,,0.01,Wunderground v.1.15,2013-07-17 11:42:00,
2013-07-17 07:47:00,72.6,70.5,30.18,SE,138,0.0,2.0,93,0.00,,,0.01,Wunderground v.1.15,2013-07-17 11:47:00,
2013-07-17 07:53:00,72.8,70.3,30.18,SE,138,0.0,2.0,92,0.00,,,0.01,Wunderground v.1.15,2013-07-17 11:53:00,
2013-07-17 07:59:00,73.3,70.8,30.18,SE,138,1.0,2.0,92,0.00,,,0.01,Wunderground v.1.15,2013-07-17 11:59:00,
2013-07-17 08:05:00,74.1,71.3,30.18,SE,138,0.0,2.0,91,0.00,,,0.01,Wunderground v.1.15,2013-07-17 12:05:00,
2013-07-17 08:10:00,74.9,71.8,30.18,SE,138,0.0,2.0,90,0.00,,,0.01,Wunderground v.1.15,2013-07-17 12:10:00,
2013-07-17 08:16:00,76.0,72.5,30.18,SE,138,0.0,2.0,89,0.00,,,0.01,Wunderground v.1.15,2013-07-17 12:16:00,
2013-07-17 08:21:00,76.7,71.8,30.19,SE,138,0.0,2.0,85,0.00,,,0.01,Wunderground v.1.15,2013-07-17 12:21:00,
2013-07-17 08:26:00,76.9,72.0,30.19,SE,138,0.0,2.0,85,0.00,,,0.01,Wunderground v.1.15,2013-07-17 12:26:00,
2013-07-17 08:31:00,77.7,72.5,30.19,SE,138,0.0,2.0,84,0.00,,,0.01,Wunderground v.1.15,2013-07-17 12:31:00,
2013-07-17 08:36:00,78.3,72.3,30.19,SE,138,0.0,2.0,82,0.00,,,0.01,Wunderground v.1.15,2013-07-17 12:36:00,
2013-07-17 08:42:00,78.5,72.9,30.18,SE,138,0.0,2.0,83,0.00,,,0.01,Wunderground v.1.15,2013-07-17 12:42:00,
2013-07-17 08:48:00,78.5,72.2,30.19,SE,138,0.0,2.0,81,0.00,,,0.01,Wunderground v.1.15,2013-07-17 12:48:00,
2013-07-17 08:53:00,78.6,72.6,30.19,SE,138,0.0,2.0,82,0.00,,,0.01,Wunderground v.1.15,2013-07-17 12:53:00,
2013-07-17 08:58:00,78.7,72.4,30.19,SE,139,0.0,2.0,81,0.00,,,0.01,Wunderground v.1.15,2013-07-17 12:58:00,
2013-07-17 09:04:00,78.8,72.5,30.18,SSE,147,1.0,2.0,81,0.00,,,0.01,Wunderground v.1.15,2013-07-17 13:04:00,
2013-07-17 09:09:00,79.0,72.3,30.18,SSW,197,1.0,2.0,80,0.00,,,0.01,Wunderground v.1.15,2013-07-17 13:09:00,
2013-07-17 09:14:00,79.2,72.9,30.18,SSW,203,1.0,2.0,81,0.00,,,0.01,Wunderground v.1.15,2013-07-17 13:14:00,
2013-07-17 09:20:00,79.7,72.6,30.18,SSW,203,1.0,1.0,79,0.00,,,0.01,Wunderground v.1.15,2013-07-17 13:20:00,
2013-07-17 09:26:00,80.3,72.4,30.18,SSW,201,0.0,2.0,77,0.00,,,0.01,Wunderground v.1.15,2013-07-17 13:26:00,
2013-07-17 09:32:00,80.5,72.2,30.18,ENE,74,1.0,2.0,76,0.00,,,0.01,Wunderground v.1.15,2013-07-17 13:32:00,
2013-07-17 09:37:00,80.4,72.9,30.17,ENE,78,2.0,2.0,78,0.00,,,0.01,Wunderground v.1.15,2013-07-17 13:37:00,
2013-07-17 09:42:00,81.0,73.1,30.17,NE,52,1.0,2.0,77,0.00,,,0.01,Wunderground v.1.15,2013-07-17 13:42:00,
2013-07-17 09:47:00,81.3,73.4,30.17,NE,50,1.0,2.0,77,0.00,,,0.01,Wunderground v.1.15,2013-07-17 13:47:00,
2013-07-17 09:52:00,81.0,72.7,30.17,NNW,328,2.0,2.0,76,0.00,,,0.01,Wunderground v.1.15,2013-07-17 13:52:00,
2013-07-17 09:57:00,81.4,73.5,30.17,NNW,328,1.0,2.0,77,0.00,,,0.01,Wunderground v.1.15,2013-07-17 13:57:00,
2013-07-17 10:03:00,81.8,73.5,30.17,NNW,345,0.0,2.0,76,0.00,,,0.01,Wunderground v.1.15,2013-07-17 14:03:00,
2013-07-17 10:08:00,82.1,72.6,30.17,NNW,338,1.0,2.0,73,0.00,,,0.01,Wunderground v.1.15,2013-07-17 14:08:00,
2013-07-17 10:14:00,82.2,72.7,30.17,North,354,1.0,3.0,73,0.00,,,0.01,Wunderground v.1.15,2013-07-17 14:14:00,
2013-07-17 10:19:00,82.6,73.1,30.17,ENE,76,1.0,3.0,73,0.00,,,0.01,Wunderground v.1.15,2013-07-17 14:19:00,
2013-07-17 10:24:00,82.6,73.1,30.17,NNW,345,1.0,3.0,73,0.00,,,0.01,Wunderground v.1.15,2013-07-17 14:24:00,
2013-07-17 10:29:00,82.5,73.8,30.17,NNW,328,2.0,5.0,75,0.00,,,0.01,Wunderground v.1.15,2013-07-17 14:29:00,
2013-07-17 10:35:00,82.7,73.6,30.17,WNW,291,2.0,4.0,74,0.00,,,0.01,Wunderground v.1.15,2013-07-17 14:35:00,
2013-07-17 10:40:00,82.7,73.2,30.17,NW,308,2.0,2.0,73,0.00,,,0.01,Wunderground v.1.15,2013-07-17 14:40:00,
2013-07-17 10:46:00,83.3,74.1,30.17,NNE,25,1.0,2.0,74,0.00,,,0.01,Wunderground v.1.15,2013-07-17 14:46:00,
2013-07-17 10:51:00,83.7,74.1,30.17,WNW,295,1.0,2.0,73,0.00,,,0.01,Wunderground v.1.15,2013-07-17 14:51:00,
2013-07-17 10:57:00,84.6,74.6,30.17,West,274,1.0,3.0,72,0.00,,,0.01,Wunderground v.1.15,2013-07-17 14:57:00,
2013-07-17 11:02:00,84.9,74.4,30.17,NNW,336,1.0,3.0,71,0.00,,,0.01,Wunderground v.1.15,2013-07-17 15:02:00,
2013-07-17 11:07:00,84.6,73.3,30.17,NNE,25,2.0,4.0,69,0.00,,,0.01,Wunderground v.1.15,2013-07-17 15:07:00,
2013-07-17 11:12:00,84.1,72.8,30.17,NNW,341,3.0,4.0,69,0.00,,,0.01,Wunderground v.1.15,2013-07-17 15:12:00,
2013-07-17 11:17:00,84.0,72.7,30.17,NNW,341,4.0,5.0,69,0.00,,,0.01,Wunderground v.1.15,2013-07-17 15:17:00,
2013-07-17 11:22:00,84.2,73.8,30.17,NNW,342,3.0,3.0,71,0.00,,,0.01,Wunderground v.1.15,2013-07-17 15:22:00,
2013-07-17 11:27:00,84.6,73.3,30.17,North,359,2.0,5.0,69,0.00,,,0.01,Wunderground v.1.15,2013-07-17 15:27:00,
2013-07-17 11:33:00,84.8,73.5,30.17,North,359,3.0,6.0,69,0.00,,,0.01,Wunderground v.1.15,2013-07-17 15:33:00,
2013-07-17 11:38:00,84.9,74.0,30.17,NE,56,3.0,6.0,70,0.00,,,0.01,Wunderground v.1.15,2013-07-17 15:38:00,
2013-07-17 11:44:00,85.0,73.7,30.17,NNE,13,3.0,6.0,69,0.00,,,0.01,Wunderground v.1.15,2013-07-17 15:44:00,
2013-07-17 11:50:00,85.2,73.0,30.17,NW,326,2.0,3.0,67,0.00,,,0.01,Wunderground v.1.15,2013-07-17 15:50:00,
2013-07-17 11:56:00,84.9,73.6,30.17,North,354,2.0,4.0,69,0.00,,,0.01,Wunderground v.1.15,2013-07-17 15:56:00,
2013-07-17 12:01:00,84.1,73.3,30.17,NNW,334,2.0,3.0,70,0.00,,,0.01,Wunderground v.1.15,2013-07-17 16:01:00,
2013-07-17 12:06:00,83.6,73.2,30.17,NNW,335,2.0,3.0,71,0.00,,,0.01,Wunderground v.1.15,2013-07-17 16:06:00,
2013-07-17 12:11:00,83.4,73.0,30.17,North,354,1.0,2.0,71,0.00,,,0.01,Wunderground v.1.15,2013-07-17 16:11:00,
2013-07-17 12:16:00,83.1,73.5,30.16,North,349,1.0,2.0,73,0.00,,,0.01,Wunderground v.1.15,2013-07-17 16:16:00,
2013-07-17 12:21:00,83.0,73.4,30.16,North,350,1.0,2.0,73,0.00,,,0.01,Wunderground v.1.15,2013-07-17 16:21:00,
2013-07-17 12:27:00,83.1,73.5,30.16,NNW,341,1.0,2.0,73,0.00,,,0.01,Wunderground v.1.15,2013-07-17 16:27:00,
2013-07-17 12:33:00,83.3,73.7,30.16,NNW,341,1.0,2.0,73,0.00,,,0.01,Wunderground v.1.15,2013-07-17 16:33:00,
2013-07-17 12:39:00,83.6,73.2,30.16,NNW,341,0.0,2.0,71,0.00,,,0.01,Wunderground v.1.15,2013-07-17 16:39:00,
2013-07-17 12:44:00,84.2,74.2,30.15,NNW,337,1.0,2.0,72,0.00,,,0.01,Wunderground v.1.15,2013-07-17 16:44:00,
2013-07-17 12:50:00,84.8,74.3,30.15,NNE,27,2.0,2.0,71,0.00,,,0.01,Wunderground v.1.15,2013-07-17 16:50:00,
2013-07-17 12:55:00,85.5,75.0,30.15,NW,309,2.0,4.0,71,0.00,,,0.01,Wunderground v.1.15,2013-07-17 16:55:00,
2013-07-17 13:01:00,86.3,73.6,30.15,North,4,3.0,6.0,66,0.00,,,0.01,Wunderground v.1.15,2013-07-17 17:01:00,
2013-07-17 13:07:00,86.2,74.0,30.15,WNW,283,4.0,6.0,67,0.00,,,0.01,Wunderground v.1.15,2013-07-17 17:07:00,
2013-07-17 13:12:00,86.7,74.9,30.15,NW,320,3.0,4.0,68,0.00,,,0.01,Wunderground v.1.15,2013-07-17 17:12:00,
2013-07-17 13:18:00,86.6,74.3,30.14,NW,314,4.0,10.0,67,0.00,,,0.01,Wunderground v.1.15,2013-07-17 17:18:00,
2013-07-17 13:24:00,87.2,74.9,30.14,NNW,331,5.0,6.0,67,0.00,,,0.01,Wunderground v.1.15,2013-07-17 17:24:00,
2013-07-17 13:30:00,87.0,75.2,30.14,North,359,5.0,5.0,68,0.00,,,0.01,Wunderground v.1.15,2013-07-17 17:30:00,
2013-07-17 13:35:00,86.7,74.9,30.14,North,4,3.0,5.0,68,0.00,,,0.01,Wunderground v.1.15,2013-07-17 17:35:00,
2013-07-17 13:40:00,86.2,73.5,30.13,NE,40,2.0,2.0,66,0.00,,,0.01,Wunderground v.1.15,2013-07-17 17:40:00,
2013-07-17 13:45:00,85.7,73.5,30.13,North,4,2.0,4.0,67,0.00,,,0.01,Wunderground v.1.15,2013-07-17 17:45:00,
2013-07-17 13:50:00,85.4,73.2,30.13,NNW,343,2.0,4.0,67,0.00,,,0.01,Wunderground v.1.15,2013-07-17 17:50:00,
2013-07-17 13:55:00,85.2,73.0,30.13,North,4,3.0,4.0,67,0.00,,,0.01,Wunderground v.1.15,2013-07-17 17:55:00,
2013-07-17 14:00:00,85.0,73.3,30.13,North,354,2.0,3.0,68,0.00,,,0.01,Wunderground v.1.15,2013-07-17 18:00:00,
2013-07-17 14:06:00,84.8,73.9,30.14,NNW,343,2.0,3.0,70,0.00,,,0.01,Wunderground v.1.15,2013-07-17 18:06:00,
2013-07-17 14:11:00,84.5,73.2,30.14,NNW,340,2.0,4.0,69,0.00,,,0.01,Wunderground v.1.15,2013-07-17 18:11:00,
2013-07-17 14:16:00,84.3,73.4,30.14,NNW,344,2.0,4.0,70,0.00,,,0.01,Wunderground v.1.15,2013-07-17 18:16:00,
2013-07-17 14:21:00,84.1,73.3,30.13,North,354,2.0,2.0,70,0.00,,,0.01,Wunderground v.1.15,2013-07-17 18:21:00,
2013-07-17 14:27:00,84.1,73.7,30.13,ENE,74,2.0,4.0,71,0.00,,,0.01,Wunderground v.1.15,2013-07-17 18:27:00,
2013-07-17 14:33:00,83.8,73.8,30.13,ENE,77,3.0,4.0,72,0.00,,,0.01,Wunderground v.1.15,2013-07-17 18:33:00,
2013-07-17 14:39:00,83.4,74.2,30.12,East,100,3.0,4.0,74,0.00,,,0.01,Wunderground v.1.15,2013-07-17 18:39:00,
2013-07-17 14:45:00,83.2,74.8,30.12,ENE,75,3.0,5.0,76,0.00,,,0.01,Wunderground v.1.15,2013-07-17 18:45:00,
2013-07-17 14:50:00,83.1,74.4,30.11,ENE,66,3.0,3.0,75,0.00,,,0.01,Wunderground v.1.15,2013-07-17 18:50:00,
2013-07-17 14:55:00,83.2,74.4,30.11,ENE,61,3.0,4.0,75,0.00,,,0.01,Wunderground v.1.15,2013-07-17 18:55:00,
2013-07-17 15:00:00,83.3,74.5,30.11,ENE,61,2.0,2.0,75,0.00,,,0.01,Wunderground v.1.15,2013-07-17 19:00:00,
2013-07-17 15:05:00,83.4,74.6,30.11,ESE,115,2.0,4.0,75,0.00,,,0.01,Wunderground v.1.15,2013-07-17 19:05:00,
2013-07-17 15:11:00,83.6,74.8,30.11,East,97,2.0,2.0,75,0.00,,,0.01,Wunderground v.1.15,2013-07-17 19:11:00,
2013-07-17 15:17:00,83.6,74.0,30.11,East,97,1.0,2.0,73,0.00,,,0.01,Wunderground v.1.15,2013-07-17 19:17:00,
2013-07-17 15:22:00,83.7,74.1,30.11,East,84,1.0,2.0,73,0.00,,,0.01,Wunderground v.1.15,2013-07-17 19:22:00,
2013-07-17 15:27:00,83.9,73.9,30.11,East,84,1.0,2.0,72,0.00,,,0.01,Wunderground v.1.15,2013-07-17 19:27:00,
2013-07-17 15:32:00,84.0,74.0,30.11,East,84,1.0,2.0,72,0.00,,,0.01,Wunderground v.1.15,2013-07-17 19:32:00,
2013-07-17 15:37:00,84.1,74.1,30.11,East,80,1.0,3.0,72,0.00,,,0.01,Wunderground v.1.15,2013-07-17 19:37:00,
2013-07-17 15:42:00,84.2,72.9,30.11,East,80,1.0,3.0,69,0.00,,,0.01,Wunderground v.1.15,2013-07-17 19:42:00,
2013-07-17 15:47:00,84.4,72.7,30.11,ENE,63,1.0,3.0,68,0.00,,,0.01,Wunderground v.1.15,2013-07-17 19:47:00,
2013-07-17 15:52:00,84.7,73.0,30.10,ENE,63,1.0,2.0,68,0.00,,,0.01,Wunderground v.1.15,2013-07-17 19:52:00,
2013-07-17 15:58:00,85.0,73.3,30.11,ENE,63,1.0,2.0,68,0.00,,,0.01,Wunderground v.1.15,2013-07-17 19:58:00,
2013-07-17 16:03:00,84.9,72.7,30.10,ENE,63,1.0,3.0,67,0.00,,,0.01,Wunderground v.1.15,2013-07-17 20:03:00,
2013-07-17 16:08:00,85.0,72.8,30.10,ENE,63,1.0,3.0,67,0.00,,,0.01,Wunderground v.1.15,2013-07-17 20:08:00,
2013-07-17 16:14:00,85.0,72.4,30.09,ENE,64,1.0,3.0,66,0.00,,,0.01,Wunderground v.1.15,2013-07-17 20:14:00,
2013-07-17 16:20:00,85.0,73.3,30.09,ENE,64,2.0,2.0,68,0.00,,,0.01,Wunderground v.1.15,2013-07-17 20:20:00,
2013-07-17 16:26:00,85.0,73.3,30.09,ENE,62,2.0,4.0,68,0.00,,,0.01,Wunderground v.1.15,2013-07-17 20:26:00,
2013-07-17 16:32:00,85.0,73.3,30.09,ENE,62,2.0,2.0,68,0.00,,,0.01,Wunderground v.1.15,2013-07-17 20:32:00,
2013-07-17 16:37:00,85.1,72.9,30.09,ENE,62,1.0,2.0,67,0.00,,,0.01,Wunderground v.1.15,2013-07-17 20:37:00,
2013-07-17 16:42:00,85.1,72.0,30.09,ENE,62,1.0,2.0,65,0.00,,,0.01,Wunderground v.1.15,2013-07-17 20:42:00,
2013-07-17 16:47:00,85.0,71.9,30.09,ENE,64,2.0,3.0,65,0.00,,,0.01,Wunderground v.1.15,2013-07-17 20:47:00,
2013-07-17 16:52:00,85.2,73.4,30.09,ENE,64,2.0,2.0,68,0.00,,,0.01,Wunderground v.1.15,2013-07-17 20:52:00,
2013-07-17 16:58:00,85.2,73.0,30.09,ENE,64,1.0,3.0,67,0.00,,,0.01,Wunderground v.1.15,2013-07-17 20:58:00,
2013-07-17 17:04:00,85.1,73.3,30.08,ENE,65,2.0,3.0,68,0.00,,,0.01,Wunderground v.1.15,2013-07-17 21:04:00,
2013-07-17 17:09:00,85.1,73.8,30.08,ENE,65,2.0,3.0,69,0.00,,,0.01,Wunderground v.1.15,2013-07-17 21:09:00,
2013-07-17 17:15:00,85.1,72.9,30.08,ENE,67,2.0,4.0,67,0.00,,,0.01,Wunderground v.1.15,2013-07-17 21:15:00,
2013-07-17 17:21:00,85.1,72.9,30.08,ENE,68,2.0,3.0,67,0.00,,,0.01,Wunderground v.1.15,2013-07-17 21:21:00,
2013-07-17 17:26:00,85.2,73.0,30.08,ENE,68,2.0,3.0,67,0.00,,,0.01,Wunderground v.1.15,2013-07-17 21:26:00,
2013-07-17 17:32:00,85.5,73.3,30.08,ENE,68,1.0,2.0,67,0.00,,,0.01,Wunderground v.1.15,2013-07-17 21:32:00,
2013-07-17 17:37:00,85.7,73.9,30.07,ENE,68,1.0,2.0,68,0.00,,,0.01,Wunderground v.1.15,2013-07-17 21:37:00,
2013-07-17 17:43:00,85.7,72.6,30.07,NW,320,1.0,3.0,65,0.00,,,0.01,Wunderground v.1.15,2013-07-17 21:43:00,
2013-07-17 17:49:00,85.9,72.8,30.07,ENE,60,2.0,4.0,65,0.00,,,0.01,Wunderground v.1.15,2013-07-17 21:49:00,
2013-07-17 17:54:00,85.7,73.0,30.07,NE,53,2.0,5.0,66,0.00,,,0.01,Wunderground v.1.15,2013-07-17 21:54:00,
2013-07-17 18:00:00,85.6,72.5,30.07,ENE,64,2.0,2.0,65,0.00,,,0.01,Wunderground v.1.15,2013-07-17 22:00:00,
2013-07-17 18:05:00,85.7,72.6,30.07,ENE,64,2.0,2.0,65,0.00,,,0.01,Wunderground v.1.15,2013-07-17 22:05:00,
2013-07-17 18:10:00,85.8,72.7,30.07,NE,48,1.0,2.0,65,0.00,,,0.01,Wunderground v.1.15,2013-07-17 22:10:00,
2013-07-17 18:16:00,85.8,73.1,30.07,NNW,331,1.0,3.0,66,0.00,,,0.01,Wunderground v.1.15,2013-07-17 22:16:00,
2013-07-17 18:22:00,85.8,72.7,30.07,NNW,331,1.0,2.0,65,0.00,,,0.01,Wunderground v.1.15,2013-07-17 22:22:00,
2013-07-17 18:28:00,85.9,73.7,30.07,NNW,331,1.0,2.0,67,0.00,,,0.01,Wunderground v.1.15,2013-07-17 22:28:00,
2013-07-17 18:34:00,85.8,73.6,30.06,NNW,331,1.0,2.0,67,0.00,,,0.01,Wunderground v.1.15,2013-07-17 22:34:00,
2013-07-17 18:39:00,85.6,73.8,30.07,NNW,331,1.0,2.0,68,0.00,,,0.01,Wunderground v.1.15,2013-07-17 22:39:00,
2013-07-17 18:44:00,85.4,73.2,30.07,NNW,331,1.0,2.0,67,0.00,,,0.01,Wunderground v.1.15,2013-07-17 22:44:00,
2013-07-17 18:49:00,85.3,73.5,30.06,NNW,331,1.0,2.0,68,0.00,,,0.01,Wunderground v.1.15,2013-07-17 22:49:00,
2013-07-17 18:55:00,85.4,73.6,30.07,NNW,331,1.0,2.0,68,0.00,,,0.01,Wunderground v.1.15,2013-07-17 22:55:00,
2013-07-17 19:01:00,85.5,74.2,30.07,NNW,331,1.0,2.0,69,0.00,,,0.01,Wunderground v.1.15,2013-07-17 23:01:00,
2013-07-17 19:07:00,85.4,74.1,30.07,NNW,331,1.0,2.0,69,0.00,,,0.01,Wunderground v.1.15,2013-07-17 23:07:00,
2013-07-17 19:13:00,85.3,73.5,30.07,NNW,331,1.0,2.0,68,0.00,,,0.01,Wunderground v.1.15,2013-07-17 23:13:00,
2013-07-17 19:19:00,85.4,74.5,30.08,NNW,331,1.0,2.0,70,0.00,,,0.01,Wunderground v.1.15,2013-07-17 23:19:00,
2013-07-17 19:25:00,85.2,74.7,30.08,NNW,331,1.0,2.0,71,0.00,,,0.01,Wunderground v.1.15,2013-07-17 23:25:00,
2013-07-17 19:31:00,84.9,74.0,30.08,NNW,331,0.0,2.0,70,0.00,,,0.01,Wunderground v.1.15,2013-07-17 23:31:00,
2013-07-17 19:36:00,84.7,74.3,30.08,NNW,331,0.0,2.0,71,0.00,,,0.01,Wunderground v.1.15,2013-07-17 23:36:00,
2013-07-17 19:41:00,84.3,74.3,30.08,NNW,331,0.0,2.0,72,0.00,,,0.01,Wunderground v.1.15,2013-07-17 23:41:00,
2013-07-17 19:47:00,84.1,74.1,30.08,NNW,331,0.0,2.0,72,0.00,,,0.01,Wunderground v.1.15,2013-07-17 23:47:00,
2013-07-17 19:52:00,83.9,73.9,30.07,NNW,331,0.0,2.0,72,0.00,,,0.01,Wunderground v.1.15,2013-07-17 23:52:00,
2013-07-17 19:58:00,83.8,73.8,30.07,NNW,331,0.0,2.0,72,0.00,,,0.01,Wunderground v.1.15,2013-07-17 23:58:00,
2013-07-17 20:03:00,83.7,74.1,30.07,NNW,331,0.0,2.0,73,0.00,,,0.01,Wunderground v.1.15,2013-07-18 00:03:00,
2013-07-17 20:09:00,83.4,74.2,30.07,NNW,331,0.0,2.0,74,0.00,,,0.01,Wunderground v.1.15,2013-07-18 00:09:00,
2013-07-17 20:15:00,83.1,74.4,30.07,NNW,331,0.0,2.0,75,0.00,,,0.01,Wunderground v.1.15,2013-07-18 00:15:00,
2013-07-17 20:21:00,82.7,74.4,30.08,NNW,331,0.0,2.0,76,0.00,,,0.01,Wunderground v.1.15,2013-07-18 00:21:00,
2013-07-17 20:27:00,82.2,74.3,30.08,NNW,331,0.0,2.0,77,0.00,,,0.01,Wunderground v.1.15,2013-07-18 00:27:00,
2013-07-17 20:33:00,81.9,74.4,30.07,NNW,331,0.0,2.0,78,0.00,,,0.01,Wunderground v.1.15,2013-07-18 00:33:00,
2013-07-17 20:39:00,81.6,74.1,30.07,NNW,331,0.0,2.0,78,0.00,,,0.01,Wunderground v.1.15,2013-07-18 00:39:00,
2013-07-17 20:44:00,81.5,73.6,30.07,NNW,331,1.0,2.0,77,0.00,,,0.01,Wunderground v.1.15,2013-07-18 00:44:00,
2013-07-17 20:50:00,81.3,74.2,30.07,NNW,331,0.0,2.0,79,0.00,,,0.01,Wunderground v.1.15,2013-07-18 00:50:00,
2013-07-17 20:56:00,80.9,74.1,30.07,NNW,331,0.0,2.0,80,0.00,,,0.01,Wunderground v.1.15,2013-07-18 00:56:00,
2013-07-17 21:01:00,80.5,74.1,30.07,NNW,331,0.0,2.0,81,0.00,,,0.01,Wunderground v.1.15,2013-07-18 01:01:00,
2013-07-17 21:06:00,80.1,74.1,30.07,NNW,331,0.0,2.0,82,0.00,,,0.01,Wunderground v.1.15,2013-07-18 01:06:00,
2013-07-17 21:12:00,79.7,74.1,30.07,NNW,331,0.0,2.0,83,0.00,,,0.01,Wunderground v.1.15,2013-07-18 01:12:00,
2013-07-17 21:17:00,79.4,74.1,30.07,NNW,331,1.0,2.0,84,0.00,,,0.01,Wunderground v.1.15,2013-07-18 01:17:00,
2013-07-17 21:23:00,79.0,73.7,30.08,NNW,331,0.0,2.0,84,0.00,,,0.01,Wunderground v.1.15,2013-07-18 01:23:00,
2013-07-17 21:28:00,78.7,73.8,30.08,NNW,331,0.0,2.0,85,0.00,,,0.01,Wunderground v.1.15,2013-07-18 01:28:00,
2013-07-17 21:34:00,78.5,73.3,30.08,NNE,27,1.0,3.0,84,0.00,,,0.01,Wunderground v.1.15,2013-07-18 01:34:00,
2013-07-17 21:40:00,78.2,73.3,30.08,NNE,32,2.0,2.0,85,0.00,,,0.01,Wunderground v.1.15,2013-07-18 01:40:00,
2013-07-17 21:46:00,78.1,73.2,30.09,NE,51,1.0,2.0,85,0.00,,,0.01,Wunderground v.1.15,2013-07-18 01:46:00,
2013-07-17 21:52:00,78.0,73.1,30.09,NE,51,1.0,2.0,85,0.00,,,0.01,Wunderground v.1.15,2013-07-18 01:52:00,
2013-07-17 21:58:00,77.9,73.0,30.09,NE,51,0.0,2.0,85,0.00,,,0.01,Wunderground v.1.15,2013-07-18 01:58:00,
2013-07-17 22:04:00,77.7,72.8,30.09,NE,50,0.0,2.0,85,0.00,,,0.01,Wunderground v.1.15,2013-07-18 02:04:00,
2013-07-17 22:10:00,77.6,72.7,30.09,NE,50,0.0,2.0,85,0.00,,,0.01,Wunderground v.1.15,2013-07-18 02:10:00,
2013-07-17 22:16:00,77.4,72.9,30.10,NE,50,0.0,2.0,86,0.00,,,0.01,Wunderground v.1.15,2013-07-18 02:16:00,
2013-07-17 22:21:00,77.2,72.7,30.09,NE,51,0.0,2.0,86,0.00,,,0.01,Wunderground v.1.15,2013-07-18 02:21:00,
2013-07-17 22:26:00,77.0,72.5,30.09,NE,50,0.0,2.0,86,0.00,,,0.01,Wunderground v.1.15,2013-07-18 02:26:00,
2013-07-17 22:32:00,76.6,72.1,30.10,NE,51,0.0,2.0,86,0.00,,,0.01,Wunderground v.1.15,2013-07-18 02:32:00,
2013-07-17 22:38:00,76.3,71.8,30.10,NE,51,0.0,2.0,86,0.00,,,0.01,Wunderground v.1.15,2013-07-18 02:38:00,
2013-07-17 22:44:00,76.1,71.6,30.10,NE,51,0.0,2.0,86,0.00,,,0.01,Wunderground v.1.15,2013-07-18 02:44:00,
2013-07-17 22:50:00,76.0,71.5,30.10,NE,50,0.0,2.0,86,0.00,,,0.01,Wunderground v.1.15,2013-07-18 02:50:00,
2013-07-17 22:56:00,75.8,71.7,30.10,NE,51,0.0,2.0,87,0.00,,,0.01,Wunderground v.1.15,2013-07-18 02:56:00,
2013-07-17 23:02:00,75.7,71.6,30.10,NE,51,0.0,2.0,87,0.00,,,0.01,Wunderground v.1.15,2013-07-18 03:02:00,
2013-07-17 23:08:00,75.6,71.5,30.10,NE,51,0.0,2.0,87,0.00,,,0.01,Wunderground v.1.15,2013-07-18 03:08:00,
2013-07-17 23:14:00,75.5,71.4,30.10,NE,52,0.0,2.0,87,0.00,,,0.01,Wunderground v.1.15,2013-07-18 03:14:00,
2013-07-17 23:19:00,75.4,71.3,30.10,NE,52,0.0,2.0,87,0.00,,,0.01,Wunderground v.1.15,2013-07-18 03:19:00,
2013-07-17 23:25:00,75.4,71.3,30.10,NE,52,0.0,2.0,87,0.00,,,0.01,Wunderground v.1.15,2013-07-18 03:25:00,
2013-07-17 23:31:00,75.4,71.3,30.10,NE,52,0.0,2.0,87,0.00,,,0.01,Wunderground v.1.15,2013-07-18 03:31:00,
2013-07-17 23:36:00,75.5,71.4,30.10,NE,52,0.0,2.0,87,0.00,,,0.01,Wunderground v.1.15,2013-07-18 03:36:00,
2013-07-17 23:42:00,75.4,71.3,30.10,NE,52,0.0,2.0,87,0.00,,,0.01,Wunderground v.1.15,2013-07-18 03:42:00,
2013-07-17 23:48:00,75.3,71.5,30.10,NE,52,0.0,2.0,88,0.00,,,0.01,Wunderground v.1.15,2013-07-18 03:48:00,
2013-07-17 23:53:00,75.2,71.4,30.10,NE,52,0.0,2.0,88,0.00,,,0.01,Wunderground v.1.15,2013-07-18 03:53:00,
2013-07-17 23:59:00,75.1,71.6,30.10,NE,52,0.0,2.0,89,0.00,,,0.01,Wunderground v.1.15,2013-07-18 03:59:00,